createdAt,value
2024-03-13T00:00:59.033Z,156.54
2024-03-13T00:01:58.983Z,157.13
2024-03-13T00:02:58.937Z,157.42
2024-03-13T00:03:58.950Z,157.13
2024-03-13T00:04:58.918Z,157.13
2024-03-13T00:05:58.946Z,157.57
2024-03-13T00:06:58.984Z,158.91
2024-03-13T00:07:58.891Z,158.61
2024-03-13T00:08:58.873Z,158.91
2024-03-13T00:09:58.919Z,158.76
2024-03-13T00:10:58.841Z,159.66
2024-03-13T00:11:58.854Z,158.31
2024-03-13T00:12:58.809Z,159.21
2024-03-13T00:13:58.794Z,159.21
2024-03-13T00:14:58.784Z,159.21
2024-03-13T00:15:59.325Z,160.42
2024-03-13T00:16:58.755Z,159.36
2024-03-13T00:17:58.897Z,160.73
2024-03-13T00:18:58.790Z,160.42
2024-03-13T00:19:58.741Z,159.66
2024-03-13T00:20:58.736Z,160.58
2024-03-13T00:21:58.738Z,160.73
2024-03-13T00:22:58.738Z,160.73
2024-03-13T00:23:58.707Z,162.13
2024-03-13T00:24:58.714Z,161.97
2024-03-13T00:25:58.650Z,161.35
2024-03-13T00:26:58.624Z,161.97
2024-03-13T00:27:58.655Z,162.60
2024-03-13T00:28:58.633Z,162.75
2024-03-13T00:29:58.614Z,162.91
2024-03-13T00:30:58.626Z,163.07
2024-03-13T00:31:58.573Z,163.86
2024-03-13T00:32:58.601Z,164.02
2024-03-13T00:33:58.603Z,164.35
2024-03-13T00:34:58.549Z,164.83
2024-03-13T00:35:58.506Z,164.67
2024-03-13T00:36:58.516Z,165.31
2024-03-13T00:37:58.494Z,165.31
2024-03-13T00:38:58.464Z,165.48
2024-03-13T00:39:58.499Z,165.80
2024-03-13T00:40:58.444Z,166.13
2024-03-13T00:41:58.429Z,166.13
2024-03-13T00:42:58.463Z,166.29
2024-03-13T00:43:58.420Z,166.46
2024-03-13T00:44:58.386Z,167.46
2024-03-13T00:45:58.415Z,167.79
2024-03-13T00:46:58.376Z,167.79
2024-03-13T00:47:58.438Z,168.12
2024-03-13T00:48:58.379Z,168.46
2024-03-13T00:49:58.345Z,169.14
2024-03-13T00:50:58.309Z,169.14
2024-03-13T00:51:58.347Z,170.51
2024-03-13T00:52:58.288Z,170.17
2024-03-13T00:53:58.282Z,171.38
2024-03-13T00:54:58.326Z,171.56
2024-03-13T00:55:58.262Z,171.56
2024-03-13T00:56:58.235Z,171.91
2024-03-13T00:57:58.318Z,172.97
2024-03-13T00:58:58.211Z,173.50
2024-03-13T00:59:58.209Z,173.32
2024-03-13T01:00:58.224Z,174.77
2024-03-13T01:01:58.266Z,173.86
2024-03-13T01:02:58.189Z,175.31
2024-03-13T01:03:58.164Z,175.68
2024-03-13T01:04:58.139Z,175.86
2024-03-13T01:05:58.118Z,176.05
2024-03-13T01:06:58.153Z,176.97
2024-03-13T01:07:58.097Z,177.35
2024-03-13T01:08:58.123Z,178.29
2024-03-13T01:09:58.134Z,179.43
2024-03-13T01:10:58.078Z,178.67
2024-03-13T01:11:58.043Z,179.24
2024-03-13T01:12:58.030Z,180.20
2024-03-13T01:13:58.025Z,180.97
2024-03-13T01:14:58.019Z,181.17
2024-03-13T01:15:58.032Z,181.36
2024-03-13T01:16:57.975Z,182.55
2024-03-13T01:17:57.980Z,182.55
2024-03-13T01:18:57.981Z,183.34
2024-03-13T01:19:57.969Z,183.14
2024-03-13T01:20:57.941Z,182.94
2024-03-13T01:21:57.932Z,183.14
2024-03-13T01:22:57.899Z,184.35
2024-03-13T01:23:57.883Z,185.16
2024-03-13T01:24:57.914Z,185.16
2024-03-13T01:25:57.906Z,185.57
2024-03-13T01:26:57.847Z,185.77
2024-03-13T01:27:57.867Z,185.57
2024-03-13T01:28:57.821Z,185.98
2024-03-13T01:29:57.824Z,186.29
2024-03-13T01:30:57.842Z,185.97
2024-03-13T01:31:57.796Z,186.71
2024-03-13T01:32:57.800Z,187.34
2024-03-13T01:33:57.846Z,187.87
2024-03-13T01:34:57.743Z,186.71
2024-03-13T01:35:57.740Z,188.52
2024-03-13T01:36:57.852Z,188.41
2024-03-13T01:37:57.923Z,189.05
2024-03-13T01:38:57.778Z,188.19
2024-03-13T01:39:57.727Z,189.92
2024-03-13T01:40:57.661Z,189.71
2024-03-13T01:41:57.668Z,190.14
2024-03-13T01:42:57.665Z,191.02
2024-03-13T01:43:57.624Z,191.69
2024-03-13T01:44:57.618Z,191.57
2024-03-13T01:45:57.625Z,192.24
2024-03-13T01:46:57.611Z,191.91
2024-03-13T01:47:57.582Z,192.02
2024-03-13T01:48:57.576Z,192.47
2024-03-13T01:49:57.554Z,192.24
2024-03-13T01:50:57.538Z,192.69
2024-03-13T01:51:57.551Z,192.13
2024-03-13T01:52:57.533Z,193.48
2024-03-13T01:53:57.502Z,193.71
2024-03-13T01:54:57.532Z,193.82
2024-03-13T01:55:57.465Z,194.39
2024-03-13T01:56:57.477Z,195.08
2024-03-13T01:57:58.062Z,193.93
2024-03-13T01:58:57.436Z,195.89
2024-03-13T01:59:57.416Z,195.89
2024-03-13T02:00:57.484Z,195.66
2024-03-13T02:01:57.491Z,195.66
2024-03-13T02:02:57.385Z,196.59
2024-03-13T02:03:57.420Z,195.43
2024-03-13T02:04:57.368Z,197.06
2024-03-13T02:05:57.349Z,195.77
2024-03-13T02:06:57.360Z,195.89
2024-03-13T02:07:57.309Z,196.47
2024-03-13T02:08:57.332Z,196.82
2024-03-13T02:09:57.308Z,198.60
2024-03-13T02:10:57.300Z,197.53
2024-03-13T02:11:57.277Z,197.65
2024-03-13T02:12:57.275Z,198.84
2024-03-13T02:13:57.226Z,198.12
2024-03-13T02:14:57.244Z,197.88
2024-03-13T02:15:57.290Z,198.48
2024-03-13T02:16:57.208Z,198.95
2024-03-13T02:17:57.211Z,198.36
2024-03-13T02:18:57.185Z,198.95
2024-03-13T02:19:57.159Z,199.07
2024-03-13T02:20:57.177Z,200.04
2024-03-13T02:21:57.167Z,198.71
2024-03-13T02:22:57.123Z,199.55
2024-03-13T02:23:57.108Z,199.55
2024-03-13T02:24:57.115Z,200.28
2024-03-13T02:25:57.103Z,200.04
2024-03-13T02:26:57.098Z,201.26
2024-03-13T02:27:57.067Z,201.62
2024-03-13T02:28:57.036Z,201.75
2024-03-13T02:29:57.031Z,201.13
2024-03-13T02:30:57.065Z,201.62
2024-03-13T02:31:57.064Z,201.75
2024-03-13T02:32:57.066Z,202.86
2024-03-13T02:33:57.038Z,202.37
2024-03-13T02:34:56.963Z,202.12
2024-03-13T02:35:56.974Z,202.99
2024-03-13T02:36:57.012Z,202.49
2024-03-13T02:37:56.940Z,202.37
2024-03-13T02:38:57.018Z,201.99
2024-03-13T02:39:56.917Z,203.61
2024-03-13T02:40:56.901Z,203.86
2024-03-13T02:41:56.901Z,201.62
2024-03-13T02:42:56.927Z,202.49
2024-03-13T02:43:56.882Z,202.99
2024-03-13T02:44:56.849Z,203.49
2024-03-13T02:45:56.867Z,205.00
2024-03-13T02:46:56.844Z,202.74
2024-03-13T02:47:56.890Z,203.61
2024-03-13T02:48:56.847Z,203.49
2024-03-13T02:49:56.773Z,204.24
2024-03-13T02:50:56.768Z,202.99
2024-03-13T02:51:56.801Z,204.49
2024-03-13T02:52:56.736Z,204.24
2024-03-13T02:53:56.757Z,204.62
2024-03-13T02:54:56.758Z,205.00
2024-03-13T02:55:56.705Z,205.51
2024-03-13T02:56:56.711Z,205.51
2024-03-13T02:57:56.705Z,204.62
2024-03-13T02:58:56.673Z,204.62
2024-03-13T02:59:56.680Z,205.26
2024-03-13T03:00:56.758Z,204.75
2024-03-13T03:01:56.789Z,206.15
2024-03-13T03:02:56.620Z,204.62
2024-03-13T03:03:56.649Z,205.51
2024-03-13T03:04:56.582Z,205.64
2024-03-13T03:05:56.592Z,204.87
2024-03-13T03:06:56.601Z,205.64
2024-03-13T03:07:56.548Z,205.89
2024-03-13T03:08:56.543Z,205.64
2024-03-13T03:09:56.557Z,204.37
2024-03-13T03:10:56.581Z,205.38
2024-03-13T03:11:56.511Z,205.00
2024-03-13T03:12:56.538Z,204.49
2024-03-13T03:13:56.496Z,205.51
2024-03-13T03:14:56.468Z,205.00
2024-03-13T03:15:56.470Z,205.64
2024-03-13T03:16:56.485Z,204.75
2024-03-13T03:17:56.545Z,203.11
2024-03-13T03:18:56.440Z,206.02
2024-03-13T03:19:56.394Z,205.13
2024-03-13T03:20:56.391Z,203.99
2024-03-13T03:21:56.395Z,204.75
2024-03-13T03:22:56.390Z,204.11
2024-03-13T03:23:56.370Z,203.86
2024-03-13T03:24:56.378Z,204.75
2024-03-13T03:25:56.320Z,202.99
2024-03-13T03:26:56.319Z,203.61
2024-03-13T03:27:56.349Z,204.49
2024-03-13T03:28:56.283Z,204.75
2024-03-13T03:29:56.275Z,202.99
2024-03-13T03:30:56.277Z,203.24
2024-03-13T03:31:56.256Z,202.99
2024-03-13T03:32:56.248Z,203.99
2024-03-13T03:33:56.268Z,203.24
2024-03-13T03:34:56.235Z,202.37
2024-03-13T03:35:56.195Z,202.99
2024-03-13T03:36:56.279Z,203.11
2024-03-13T03:37:56.176Z,204.11
2024-03-13T03:38:56.163Z,204.75
2024-03-13T03:39:56.171Z,203.11
2024-03-13T03:40:56.132Z,205.38
2024-03-13T03:41:56.116Z,204.87
2024-03-13T03:42:56.167Z,203.74
2024-03-13T03:43:56.097Z,205.00
2024-03-13T03:44:56.110Z,204.24
2024-03-13T03:45:56.103Z,204.49
2024-03-13T03:46:56.096Z,204.24
2024-03-13T03:48:01.663Z,205.13
2024-03-13T03:48:56.068Z,204.49
2024-03-13T03:49:56.019Z,204.87
2024-03-13T03:50:56.050Z,203.74
2024-03-13T03:51:56.030Z,203.99
2024-03-13T03:52:55.981Z,205.13
2024-03-13T03:53:55.966Z,204.75
2024-03-13T03:54:55.993Z,204.75
2024-03-13T03:55:55.938Z,205.00
2024-03-13T03:56:55.970Z,205.00
2024-03-13T03:57:55.989Z,205.89
2024-03-13T03:58:55.939Z,204.11
2024-03-13T03:59:55.901Z,204.62
2024-03-13T04:00:55.964Z,205.51
2024-03-13T04:01:56.159Z,204.62
2024-03-13T04:02:55.857Z,204.49
2024-03-13T04:03:55.938Z,205.00
2024-03-13T04:04:55.850Z,205.13
2024-03-13T04:05:55.827Z,205.64
2024-03-13T04:06:55.815Z,205.13
2024-03-13T04:07:55.823Z,202.86
2024-03-13T04:08:55.789Z,205.00
2024-03-13T04:09:55.816Z,204.75
2024-03-13T04:10:55.816Z,204.49
2024-03-13T04:11:55.780Z,205.77
2024-03-13T04:12:55.738Z,204.87
2024-03-13T04:13:55.734Z,203.86
2024-03-13T04:14:55.707Z,205.26
2024-03-13T04:15:55.723Z,204.87
2024-03-13T04:16:55.692Z,205.26
2024-03-13T04:17:55.739Z,205.26
2024-03-13T04:18:55.673Z,205.51
2024-03-13T04:19:55.655Z,204.62
2024-03-13T04:20:55.632Z,205.89
2024-03-13T04:21:55.756Z,205.13
2024-03-13T04:22:55.617Z,204.24
2024-03-13T04:23:55.609Z,204.37
2024-03-13T04:24:55.610Z,203.99
2024-03-13T04:25:55.597Z,203.99
2024-03-13T04:26:55.584Z,203.99
2024-03-13T04:27:55.570Z,204.75
2024-03-13T04:28:55.525Z,204.11
2024-03-13T04:29:55.521Z,203.24
2024-03-13T04:30:55.615Z,204.49
2024-03-13T04:31:55.496Z,204.49
2024-03-13T04:32:55.574Z,204.75
2024-03-13T04:33:55.506Z,205.64
2024-03-13T04:34:55.441Z,204.75
2024-03-13T04:35:55.450Z,206.28
2024-03-13T04:36:55.539Z,206.67
2024-03-13T04:37:55.414Z,206.02
2024-03-13T04:38:55.434Z,207.18
2024-03-13T04:39:55.426Z,206.15
2024-03-13T04:40:55.374Z,205.89
2024-03-13T04:41:55.392Z,207.05
2024-03-13T04:42:55.396Z,206.15
2024-03-13T04:43:55.374Z,206.93
2024-03-13T04:44:55.342Z,206.15
2024-03-13T04:45:55.360Z,207.05
2024-03-13T04:46:55.296Z,206.79
2024-03-13T04:47:55.354Z,207.84
2024-03-13T04:48:55.334Z,206.41
2024-03-13T04:49:55.266Z,207.44
2024-03-13T04:50:55.233Z,207.05
2024-03-13T04:51:55.247Z,208.75
2024-03-13T04:52:55.208Z,206.54
2024-03-13T04:53:55.220Z,207.05
2024-03-13T04:54:55.219Z,208.75
2024-03-13T04:55:55.208Z,207.71
2024-03-13T04:56:55.182Z,208.10
2024-03-13T04:57:55.204Z,207.44
2024-03-13T04:58:55.189Z,207.71
2024-03-13T04:59:55.133Z,208.23
2024-03-13T05:00:55.230Z,207.97
2024-03-13T05:01:55.350Z,207.84
2024-03-13T05:02:55.078Z,207.97
2024-03-13T05:03:55.114Z,208.23
2024-03-13T05:04:55.091Z,208.75
2024-03-13T05:05:55.081Z,209.41
2024-03-13T05:06:55.099Z,209.15
2024-03-13T05:07:56.134Z,208.75
2024-03-13T05:08:55.011Z,208.89
2024-03-13T05:09:55.180Z,207.18
2024-03-13T05:10:55.050Z,208.36
2024-03-13T05:11:54.975Z,208.36
2024-03-13T05:12:54.985Z,208.36
2024-03-13T05:13:54.992Z,207.84
2024-03-13T05:14:54.962Z,208.23
2024-03-13T05:15:55.008Z,208.49
2024-03-13T05:16:55.009Z,208.10
2024-03-13T05:17:54.969Z,208.10
2024-03-13T05:18:54.932Z,207.18
2024-03-13T05:19:54.962Z,207.97
2024-03-13T05:20:54.872Z,207.18
2024-03-13T05:21:54.955Z,208.23
2024-03-13T05:22:54.831Z,208.36
2024-03-13T05:23:54.826Z,208.23
2024-03-13T05:24:54.813Z,207.71
2024-03-13T05:25:54.797Z,208.89
2024-03-13T05:26:54.786Z,207.57
2024-03-13T05:27:54.892Z,208.10
2024-03-13T05:28:54.753Z,208.75
2024-03-13T05:29:54.740Z,208.10
2024-03-13T05:30:54.779Z,207.57
2024-03-13T05:31:54.731Z,209.28
2024-03-13T05:32:54.732Z,208.23
2024-03-13T05:33:54.776Z,208.89
2024-03-13T05:34:54.744Z,209.28
2024-03-13T05:35:54.667Z,208.89
2024-03-13T05:36:54.782Z,208.89
2024-03-13T05:37:54.650Z,209.55
2024-03-13T05:38:54.888Z,208.89
2024-03-13T05:39:54.698Z,209.41
2024-03-13T05:40:54.681Z,208.62
2024-03-13T05:41:54.703Z,208.36
2024-03-13T05:42:54.694Z,208.36
2024-03-13T05:43:54.554Z,208.89
2024-03-13T05:44:54.656Z,208.23
2024-03-13T05:45:54.621Z,208.89
2024-03-13T05:46:54.535Z,209.28
2024-03-13T05:47:54.551Z,208.23
2024-03-13T05:48:54.527Z,208.75
2024-03-13T05:49:54.482Z,207.31
2024-03-13T05:50:54.487Z,209.55
2024-03-13T05:51:54.507Z,209.15
2024-03-13T05:52:54.452Z,209.55
2024-03-13T05:53:54.439Z,209.02
2024-03-13T05:54:54.440Z,209.15
2024-03-13T05:55:54.437Z,208.49
2024-03-13T05:56:54.398Z,207.18
2024-03-13T05:57:54.383Z,208.36
2024-03-13T05:58:54.369Z,208.89
2024-03-13T05:59:54.360Z,209.15
2024-03-13T06:00:54.418Z,208.49
2024-03-13T06:01:54.433Z,208.49
2024-03-13T06:02:54.340Z,209.28
2024-03-13T06:03:54.323Z,208.89
2024-03-13T06:04:54.295Z,209.55
2024-03-13T06:05:54.278Z,208.75
2024-03-13T06:06:54.300Z,209.15
2024-03-13T06:07:54.256Z,209.41
2024-03-13T06:08:54.240Z,209.95
2024-03-13T06:09:54.239Z,209.68
2024-03-13T06:10:54.304Z,209.55
2024-03-13T06:11:54.196Z,208.36
2024-03-13T06:12:54.308Z,210.75
2024-03-13T06:13:54.177Z,209.28
2024-03-13T06:14:54.163Z,210.48
2024-03-13T06:15:54.175Z,211.02
2024-03-13T06:16:54.134Z,210.88
2024-03-13T06:17:54.158Z,210.62
2024-03-13T06:18:54.156Z,210.35
2024-03-13T06:19:54.092Z,211.29
2024-03-13T06:20:54.090Z,211.42
2024-03-13T06:21:54.072Z,209.95
2024-03-13T06:22:54.068Z,211.29
2024-03-13T06:23:54.075Z,211.29
2024-03-13T06:24:54.056Z,210.88
2024-03-13T06:25:54.085Z,211.15
2024-03-13T06:26:54.010Z,211.97
2024-03-13T06:27:54.044Z,211.83
2024-03-13T06:28:53.983Z,211.29
2024-03-13T06:29:53.979Z,211.97
2024-03-13T06:30:54.003Z,211.02
2024-03-13T06:31:53.952Z,211.56
2024-03-13T06:32:53.979Z,211.56
2024-03-13T06:33:53.938Z,211.29
2024-03-13T06:34:53.900Z,211.56
2024-03-13T06:35:53.937Z,211.42
2024-03-13T06:36:53.986Z,211.42
2024-03-13T06:37:53.877Z,212.24
2024-03-13T06:38:53.873Z,211.83
2024-03-13T06:39:53.846Z,211.02
2024-03-13T06:40:53.877Z,212.38
2024-03-13T06:41:53.844Z,211.29
2024-03-13T06:42:53.853Z,211.29
2024-03-13T06:43:53.843Z,211.56
2024-03-13T06:44:55.357Z,211.83
2024-03-13T06:45:53.809Z,211.02
2024-03-13T06:46:53.742Z,210.35
2024-03-13T06:47:53.769Z,211.15
2024-03-13T06:48:53.745Z,211.29
2024-03-13T06:49:53.735Z,210.35
2024-03-13T06:50:53.697Z,211.02
2024-03-13T06:51:53.811Z,210.35
2024-03-13T06:52:53.701Z,211.02
2024-03-13T06:53:53.697Z,210.35
2024-03-13T06:54:53.684Z,210.35
2024-03-13T06:55:53.652Z,209.68
2024-03-13T06:56:53.637Z,209.81
2024-03-13T06:57:53.707Z,209.41
2024-03-13T06:58:53.612Z,209.95
2024-03-13T06:59:55.069Z,209.15
2024-03-13T07:00:53.791Z,209.28
2024-03-13T07:01:53.695Z,209.15
2024-03-13T07:02:53.591Z,209.41
2024-03-13T07:03:53.667Z,209.15
2024-03-13T07:04:53.532Z,209.02
2024-03-13T07:05:53.518Z,209.15
2024-03-13T07:06:53.545Z,208.23
2024-03-13T07:07:53.479Z,209.41
2024-03-13T07:08:53.484Z,208.75
2024-03-13T07:09:53.492Z,209.28
2024-03-13T07:10:53.507Z,208.62
2024-03-13T07:11:54.813Z,209.15
2024-03-13T07:12:53.446Z,209.68
2024-03-13T07:13:53.425Z,207.31
2024-03-13T07:14:53.420Z,208.89
2024-03-13T07:15:53.400Z,208.49
2024-03-13T07:16:53.382Z,208.36
2024-03-13T07:17:53.430Z,208.49
2024-03-13T07:18:53.437Z,208.23
2024-03-13T07:19:53.331Z,208.62
2024-03-13T07:20:53.331Z,208.10
2024-03-13T07:21:53.320Z,209.02
2024-03-13T07:22:53.304Z,209.41
2024-03-13T07:23:53.262Z,208.10
2024-03-13T07:24:53.314Z,207.57
2024-03-13T07:25:53.234Z,209.28
2024-03-13T07:26:53.259Z,208.36
2024-03-13T07:27:53.299Z,208.10
2024-03-13T07:28:54.342Z,208.62
2024-03-13T07:29:53.189Z,208.10
2024-03-13T07:30:53.230Z,208.89
2024-03-13T07:31:53.199Z,208.89
2024-03-13T07:32:53.190Z,207.84
2024-03-13T07:33:53.162Z,207.97
2024-03-13T07:34:53.137Z,207.71
2024-03-13T07:35:53.130Z,207.44
2024-03-13T07:36:53.254Z,207.97
2024-03-13T07:37:53.121Z,208.36
2024-03-13T07:38:53.100Z,207.05
2024-03-13T07:39:53.115Z,207.84
2024-03-13T07:40:53.056Z,207.84
2024-03-13T07:41:53.049Z,208.23
2024-03-13T07:42:53.224Z,206.79
2024-03-13T07:43:53.033Z,206.93
2024-03-13T07:44:53.003Z,207.05
2024-03-13T07:45:52.990Z,207.18
2024-03-13T07:46:52.986Z,205.51
2024-03-13T07:47:52.992Z,206.54
2024-03-13T07:48:53.051Z,205.64
2024-03-13T07:49:52.948Z,205.89
2024-03-13T07:50:52.963Z,206.28
2024-03-13T07:51:52.916Z,206.28
2024-03-13T07:52:52.954Z,205.26
2024-03-13T07:53:52.914Z,203.61
2024-03-13T07:54:52.911Z,204.49
2024-03-13T07:55:52.855Z,203.99
2024-03-13T07:56:52.847Z,204.11
2024-03-13T07:57:52.873Z,202.99
2024-03-13T07:58:52.838Z,202.86
2024-03-13T07:59:52.815Z,202.49
2024-03-13T08:00:52.906Z,201.99
2024-03-13T08:01:52.865Z,201.75
2024-03-13T08:02:52.771Z,201.62
2024-03-13T08:03:52.820Z,201.26
2024-03-13T08:04:52.780Z,201.26
2024-03-13T13:19:04.452Z,201.13
2024-03-13T13:19:10.324Z,167.62
2024-03-13T13:20:10.296Z,146.83
2024-03-13T13:21:10.419Z,134.61
2024-03-13T13:22:10.258Z,128.93
2024-03-13T13:23:10.255Z,122.72
2024-03-13T13:24:10.276Z,119.41
2024-03-13T13:25:10.221Z,115.39
2024-03-13T13:26:10.208Z,112.91
2024-03-13T13:27:10.253Z,110.10
2024-03-13T13:28:10.205Z,108.33
2024-03-13T13:29:10.185Z,106.81
2024-03-13T13:30:10.175Z,105.01
2024-03-13T13:31:10.210Z,103.33
2024-03-13T13:32:10.135Z,102.08
2024-03-13T13:33:10.161Z,100.67
2024-03-13T13:34:10.116Z,99.84
2024-03-13T13:35:10.118Z,98.66
2024-03-13T13:36:10.123Z,97.18
2024-03-13T13:37:10.094Z,96.51
2024-03-13T13:38:10.064Z,96.35
2024-03-13T13:39:10.064Z,95.36
2024-03-13T13:40:10.056Z,94.72
2024-03-13T13:41:10.868Z,93.56
2024-03-13T13:42:10.024Z,95.18
2024-03-13T13:43:09.984Z,94.96
2024-03-13T13:44:10.006Z,94.53
2024-03-13T13:45:10.011Z,94.32
2024-03-13T13:46:10.017Z,93.58
2024-03-13T13:47:09.969Z,93.48
2024-03-13T13:48:10.445Z,93.48
2024-03-13T13:49:10.245Z,93.07
2024-03-13T13:50:09.919Z,92.05
2024-03-13T13:51:09.941Z,92.45
2024-03-13T13:52:09.899Z,92.25
2024-03-13T13:53:09.886Z,91.75
2024-03-13T13:54:09.923Z,91.65
2024-03-13T13:55:09.834Z,91.85
2024-03-13T13:56:09.863Z,91.15
2024-03-13T13:57:09.948Z,90.66
2024-03-13T13:58:09.794Z,90.76
2024-03-13T13:59:09.777Z,90.46
2024-03-13T14:00:09.828Z,90.46
2024-03-13T14:01:09.800Z,90.56
2024-03-13T14:02:09.744Z,90.46
2024-03-13T14:03:09.797Z,90.76
2024-03-13T14:04:09.715Z,90.56
2024-03-13T14:05:09.696Z,90.27
2024-03-13T14:06:11.459Z,89.69
2024-03-13T14:07:09.663Z,89.60
2024-03-13T14:08:09.668Z,90.37
2024-03-13T14:09:09.723Z,89.50
2024-03-13T14:10:09.640Z,89.79
2024-03-13T14:11:09.619Z,89.12
2024-03-13T14:12:09.668Z,89.60
2024-03-13T14:13:09.596Z,89.40
2024-03-13T14:14:09.614Z,89.12
2024-03-13T14:15:09.731Z,89.31
2024-03-13T14:16:09.559Z,89.03
2024-03-13T14:17:09.539Z,88.93
2024-03-13T14:18:09.635Z,88.65
2024-03-13T14:19:09.659Z,88.74
2024-03-13T14:20:09.509Z,88.84
2024-03-13T14:21:09.510Z,88.84
2024-03-13T14:22:10.414Z,88.46
2024-03-13T14:23:09.457Z,88.09
2024-03-13T14:24:09.548Z,88.37
2024-03-13T14:25:09.527Z,88.37
2024-03-13T14:26:09.436Z,88.37
2024-03-13T14:27:09.451Z,88.65
2024-03-13T14:28:09.399Z,88.19
2024-03-13T14:29:09.393Z,88.19
2024-03-13T14:30:09.500Z,88.37
2024-03-13T14:31:09.374Z,87.72
2024-03-13T14:32:09.406Z,88.19
2024-03-13T14:33:09.447Z,88.00
2024-03-13T14:34:09.343Z,88.00
2024-03-13T14:35:09.708Z,88.00
2024-03-13T14:36:09.336Z,87.72
2024-03-13T14:37:09.311Z,87.54
2024-03-13T14:38:09.272Z,87.82
2024-03-13T14:39:09.281Z,87.27
2024-03-13T14:40:09.249Z,87.18
2024-03-13T14:41:09.239Z,86.91
2024-03-13T14:42:15.337Z,87.09
2024-03-13T14:43:09.245Z,86.91
2024-03-13T14:44:09.212Z,86.82
2024-03-13T14:45:09.289Z,86.29
2024-03-13T14:46:09.170Z,86.29
2024-03-13T14:47:09.151Z,86.46
2024-03-13T14:48:09.231Z,85.67
2024-03-13T14:49:09.192Z,85.32
2024-03-13T14:50:09.121Z,85.84
2024-03-13T14:51:09.172Z,85.50
2024-03-13T14:52:09.090Z,84.98
2024-03-13T14:53:09.954Z,85.06
2024-03-13T14:54:09.174Z,84.81
2024-03-13T14:55:09.058Z,84.63
2024-03-13T14:56:09.056Z,84.46
2024-03-13T14:57:09.076Z,84.38
2024-03-13T14:58:09.021Z,84.13
2024-03-13T14:59:09.071Z,83.87
2024-03-13T15:00:09.026Z,83.13
2024-03-13T15:01:09.034Z,83.79
2024-03-13T15:02:08.949Z,83.62
2024-03-13T15:03:09.029Z,83.71
2024-03-13T15:04:08.949Z,82.64
2024-03-13T15:05:09.024Z,83.05
2024-03-13T15:06:08.933Z,82.88
2024-03-13T15:07:08.911Z,82.56
2024-03-13T15:08:08.870Z,82.47
2024-03-13T15:09:08.901Z,82.80
2024-03-13T15:10:08.857Z,82.47
2024-03-13T15:11:08.867Z,82.31
2024-03-13T15:12:09.700Z,82.47
2024-03-13T15:13:08.803Z,82.39
2024-03-13T15:14:08.795Z,81.99
2024-03-13T15:15:08.864Z,82.64
2024-03-13T15:16:08.821Z,82.47
2024-03-13T15:17:08.813Z,82.15
2024-03-13T15:18:08.881Z,82.07
2024-03-13T15:19:08.781Z,82.31
2024-03-13T15:20:08.740Z,82.47
2024-03-13T15:21:08.734Z,82.31
2024-03-13T15:22:08.719Z,82.31
2024-03-13T15:23:08.686Z,82.39
2024-03-13T15:24:10.290Z,82.47
2024-03-13T15:25:08.653Z,82.23
2024-03-13T15:26:08.648Z,82.80
2024-03-13T15:27:09.040Z,82.47
2024-03-13T15:28:08.653Z,82.72
2024-03-13T15:29:08.611Z,82.56
2024-03-13T15:30:10.372Z,82.80
2024-03-13T15:31:08.579Z,82.47
2024-03-13T15:32:08.561Z,83.21
2024-03-13T15:33:08.710Z,83.13
2024-03-13T15:34:08.604Z,82.80
2024-03-13T15:35:08.562Z,83.13
2024-03-13T15:36:08.573Z,83.79
2024-03-13T15:37:08.502Z,83.21
2024-03-13T15:38:08.486Z,83.54
2024-03-13T15:39:08.572Z,83.29
2024-03-13T15:40:08.491Z,83.96
2024-03-13T15:41:08.458Z,83.62
2024-03-13T15:42:08.485Z,83.54
2024-03-13T15:43:08.440Z,84.04
2024-03-13T15:44:08.419Z,84.29
2024-03-13T15:45:08.497Z,84.13
2024-03-13T15:46:08.397Z,84.21
2024-03-13T15:47:08.445Z,84.72
2024-03-13T15:48:08.398Z,84.55
2024-03-13T15:49:08.403Z,84.46
2024-03-13T15:50:13.250Z,84.63
2024-03-13T15:51:08.443Z,85.06
2024-03-13T15:52:08.313Z,84.72
2024-03-13T15:53:08.300Z,84.72
2024-03-13T15:54:08.356Z,84.72
2024-03-13T15:55:08.282Z,85.06
2024-03-13T15:56:08.254Z,84.98
2024-03-13T15:57:08.324Z,85.32
2024-03-13T15:58:08.225Z,85.24
2024-03-13T15:59:08.212Z,85.41
2024-03-13T16:00:08.244Z,85.15
2024-03-13T16:01:08.258Z,85.50
2024-03-13T16:02:08.193Z,85.93
2024-03-13T16:03:08.192Z,85.76
2024-03-13T16:04:08.181Z,86.29
2024-03-13T16:05:08.136Z,85.93
2024-03-13T16:06:08.200Z,85.76
2024-03-13T16:07:08.121Z,86.55
2024-03-13T16:08:08.126Z,86.20
2024-03-13T16:09:08.141Z,86.37
2024-03-13T16:10:08.091Z,86.37
2024-03-13T16:11:08.074Z,86.37
2024-03-13T16:12:08.104Z,86.82
2024-03-13T16:13:08.040Z,87.00
2024-03-13T16:14:08.069Z,86.64
2024-03-13T16:15:08.066Z,87.00
2024-03-13T16:16:08.006Z,86.55
2024-03-13T16:17:07.980Z,86.82
2024-03-13T16:18:08.078Z,86.82
2024-03-13T16:19:08.002Z,87.00
2024-03-13T16:20:07.984Z,87.18
2024-03-13T16:21:07.936Z,87.18
2024-03-13T16:22:07.960Z,87.54
2024-03-13T16:23:07.921Z,87.27
2024-03-13T16:24:07.923Z,87.45
2024-03-13T16:25:07.904Z,87.54
2024-03-13T16:26:07.885Z,87.82
2024-03-13T16:27:08.000Z,87.82
2024-03-13T16:28:07.853Z,88.19
2024-03-13T16:29:07.836Z,88.19
2024-03-13T16:30:07.924Z,88.09
2024-03-13T16:31:07.834Z,87.91
2024-03-13T16:32:07.795Z,87.82
2024-03-13T16:33:07.848Z,87.91
2024-03-13T16:34:07.832Z,88.19
2024-03-13T16:35:07.748Z,88.37
2024-03-13T16:36:07.774Z,88.37
2024-03-13T16:37:07.743Z,88.65
2024-03-13T16:38:07.715Z,88.28
2024-03-13T16:39:07.826Z,88.56
2024-03-13T16:40:07.710Z,88.65
2024-03-13T16:41:07.680Z,88.56
2024-03-13T16:42:07.752Z,88.46
2024-03-13T16:43:07.645Z,88.56
2024-03-13T16:44:07.661Z,88.37
2024-03-13T16:45:07.649Z,89.03
2024-03-13T16:46:07.776Z,89.12
2024-03-13T16:47:07.606Z,88.84
2024-03-13T16:48:07.682Z,89.03
2024-03-13T16:49:07.691Z,89.03
2024-03-13T16:50:07.561Z,89.31
2024-03-13T16:51:07.701Z,89.31
2024-03-13T16:52:07.570Z,89.50
2024-03-13T16:53:07.559Z,89.50
2024-03-13T16:54:07.542Z,89.21
2024-03-13T16:55:07.495Z,89.60
2024-03-13T16:56:07.477Z,89.50
2024-03-13T16:57:07.513Z,89.50
2024-03-13T16:58:07.507Z,89.12
2024-03-13T16:59:07.473Z,89.31
2024-03-13T17:00:07.438Z,89.88
2024-03-13T17:01:07.497Z,89.50
2024-03-13T17:02:07.432Z,90.07
2024-03-13T17:03:07.469Z,90.27
2024-03-13T17:04:07.415Z,90.17
2024-03-13T17:05:07.350Z,90.17
2024-03-13T17:06:07.345Z,90.07
2024-03-13T17:07:07.423Z,90.56
2024-03-13T17:08:07.338Z,90.46
2024-03-13T17:09:07.374Z,90.66
2024-03-13T17:10:07.338Z,90.27
2024-03-13T17:11:07.320Z,90.56
2024-03-13T17:12:07.293Z,90.85
2024-03-13T17:13:07.268Z,90.85
2024-03-13T17:14:07.252Z,91.05
2024-03-13T17:15:07.287Z,91.45
2024-03-13T17:16:07.222Z,91.35
2024-03-13T17:17:07.195Z,91.45
2024-03-13T17:18:07.302Z,91.65
2024-03-13T17:19:07.199Z,91.65
2024-03-13T17:20:07.207Z,91.65
2024-03-13T17:21:07.281Z,91.75
2024-03-13T17:22:07.155Z,92.05
2024-03-13T17:23:07.127Z,92.15
2024-03-13T17:24:07.182Z,91.65
2024-03-13T17:25:07.125Z,91.95
2024-03-13T17:26:07.093Z,91.95
2024-03-13T17:27:07.122Z,92.25
2024-03-13T17:28:07.485Z,91.85
2024-03-13T17:29:07.050Z,92.66
2024-03-13T17:30:07.084Z,92.35
2024-03-13T17:31:07.025Z,92.56
2024-03-13T17:32:07.034Z,92.56
2024-03-13T17:33:07.138Z,92.56
2024-03-13T17:34:07.112Z,93.38
2024-03-13T17:35:06.977Z,92.86
2024-03-13T17:36:06.969Z,92.96
2024-03-13T17:37:06.946Z,92.86
2024-03-13T17:38:06.949Z,93.17
2024-03-13T17:39:06.990Z,93.27
2024-03-13T17:40:06.915Z,93.48
2024-03-13T17:41:06.914Z,93.07
2024-03-13T17:42:08.117Z,93.48
2024-03-13T17:43:06.876Z,93.07
2024-03-13T17:44:06.865Z,93.79
2024-03-13T17:45:07.892Z,93.90
2024-03-13T17:46:06.847Z,93.27
2024-03-13T17:47:06.830Z,93.90
2024-03-13T17:48:06.890Z,94.00
2024-03-13T17:49:06.854Z,94.00